sensor_id;sensor_type;location;lat;lon;timestamp;P1;durP1;ratioP1;P2;durP2;ratioP2
14125;SDS011;7141;49.484;11.242;2023-02-05T00:00:13;8.70;;;5.30;;
14125;SDS011;7141;49.484;11.242;2023-02-05T00:02:39;8.00;;;5.60;;
14125;SDS011;7141;49.484;11.242;2023-02-05T00:05:05;10.33;;;6.37;;
14125;SDS011;7141;49.484;11.242;2023-02-05T00:07:31;9.07;;;5.70;;
14125;SDS011;7141;49.484;11.242;2023-02-05T00:09:57;12.53;;;6.80;;
14125;SDS011;7141;49.484;11.242;2023-02-05T00:12:23;11.87;;;6.40;;
14125;SDS011;7141;49.484;11.242;2023-02-05T00:14:49;13.47;;;6.40;;
14125;SDS011;7141;49.484;11.242;2023-02-05T00:17:15;11.17;;;6.23;;
14125;SDS011;7141;49.484;11.242;2023-02-05T00:19:41;11.63;;;6.70;;
14125;SDS011;7141;49.484;11.242;2023-02-05T00:22:07;12.43;;;7.33;;
14125;SDS011;7141;49.484;11.242;2023-02-05T00:24:33;15.13;;;7.73;;
14125;SDS011;7141;49.484;11.242;2023-02-05T00:26:59;31.70;;;12.60;;
14125;SDS011;7141;49.484;11.242;2023-02-05T00:29:25;22.90;;;10.47;;
14125;SDS011;7141;49.484;11.242;2023-02-05T00:31:51;17.33;;;8.77;;
14125;SDS011;7141;49.484;11.242;2023-02-05T00:34:17;14.57;;;7.73;;
14125;SDS011;7141;49.484;11.242;2023-02-05T00:36:43;17.30;;;8.93;;
14125;SDS011;7141;49.484;11.242;2023-02-05T00:39:09;16.20;;;8.63;;
14125;SDS011;7141;49.484;11.242;2023-02-05T00:41:36;17.10;;;8.17;;
14125;SDS011;7141;49.484;11.242;2023-02-05T00:44:03;14.80;;;7.97;;
14125;SDS011;7141;49.484;11.242;2023-02-05T00:46:29;11.20;;;6.67;;
14125;SDS011;7141;49.484;11.242;2023-02-05T00:48:55;7.77;;;5.50;;
14125;SDS011;7141;49.484;11.242;2023-02-05T00:51:21;10.90;;;5.97;;
14125;SDS011;7141;49.484;11.242;2023-02-05T00:53:47;9.73;;;5.23;;
14125;SDS011;7141;49.484;11.242;2023-02-05T00:56:13;7.60;;;5.30;;
14125;SDS011;7141;49.484;11.242;2023-02-05T00:58:39;8.30;;;5.60;;
14125;SDS011;7141;49.484;11.242;2023-02-05T01:01:05;10.73;;;6.00;;
14125;SDS011;7141;49.484;11.242;2023-02-05T01:03:31;10.47;;;5.70;;
14125;SDS011;7141;49.484;11.242;2023-02-05T01:05:57;8.83;;;5.47;;
14125;SDS011;7141;49.484;11.242;2023-02-05T01:08:23;9.93;;;5.63;;
14125;SDS011;7141;49.484;11.242;2023-02-05T01:10:49;9.30;;;5.50;;
14125;SDS011;7141;49.484;11.242;2023-02-05T01:13:16;7.50;;;5.20;;
14125;SDS011;7141;49.484;11.242;2023-02-05T01:15:42;10.50;;;5.73;;
14125;SDS011;7141;49.484;11.242;2023-02-05T01:18:08;8.53;;;5.67;;
14125;SDS011;7141;49.484;11.242;2023-02-05T01:20:36;7.77;;;5.20;;
14125;SDS011;7141;49.484;11.242;2023-02-05T01:23:02;8.70;;;5.17;;
14125;SDS011;7141;49.484;11.242;2023-02-05T01:25:27;9.30;;;5.50;;
14125;SDS011;7141;49.484;11.242;2023-02-05T01:27:53;7.37;;;5.17;;
14125;SDS011;7141;49.484;11.242;2023-02-05T01:30:19;11.43;;;5.90;;
14125;SDS011;7141;49.484;11.242;2023-02-05T01:32:45;9.00;;;5.03;;
14125;SDS011;7141;49.484;11.242;2023-02-05T01:35:11;6.47;;;4.73;;
14125;SDS011;7141;49.484;11.242;2023-02-05T01:37:37;8.03;;;4.97;;
14125;SDS011;7141;49.484;11.242;2023-02-05T01:40:04;8.40;;;4.33;;
14125;SDS011;7141;49.484;11.242;2023-02-05T01:42:30;7.87;;;5.07;;
14125;SDS011;7141;49.484;11.242;2023-02-05T01:47:41;9.67;;;6.03;;
14125;SDS011;7141;49.484;11.242;2023-02-05T01:50:07;7.63;;;4.70;;
14125;SDS011;7141;49.484;11.242;2023-02-05T01:52:33;7.33;;;4.50;;
14125;SDS011;7141;49.484;11.242;2023-02-05T01:54:59;10.67;;;6.13;;
14125;SDS011;7141;49.484;11.242;2023-02-05T01:57:26;12.30;;;5.83;;
14125;SDS011;7141;49.484;11.242;2023-02-05T01:59:52;9.83;;;5.87;;
14125;SDS011;7141;49.484;11.242;2023-02-05T02:02:18;12.17;;;6.20;;
14125;SDS011;7141;49.484;11.242;2023-02-05T02:04:46;12.50;;;6.07;;
14125;SDS011;7141;49.484;11.242;2023-02-05T02:07:15;7.77;;;5.57;;
14125;SDS011;7141;49.484;11.242;2023-02-05T02:09:42;8.70;;;5.40;;
14125;SDS011;7141;49.484;11.242;2023-02-05T02:12:09;7.43;;;5.10;;
14125;SDS011;7141;49.484;11.242;2023-02-05T02:14:36;8.77;;;5.43;;
14125;SDS011;7141;49.484;11.242;2023-02-05T02:17:04;11.20;;;5.77;;
14125;SDS011;7141;49.484;11.242;2023-02-05T02:19:42;10.00;;;5.30;;
14125;SDS011;7141;49.484;11.242;2023-02-05T02:24:59;11.63;;;6.17;;
14125;SDS011;7141;49.484;11.242;2023-02-05T02:30:00;14.90;;;6.80;;
14125;SDS011;7141;49.484;11.242;2023-02-05T02:32:30;9.53;;;6.37;;
14125;SDS011;7141;49.484;11.242;2023-02-05T02:35:10;9.00;;;5.87;;
14125;SDS011;7141;49.484;11.242;2023-02-05T02:37:43;9.57;;;6.50;;
14125;SDS011;7141;49.484;11.242;2023-02-05T02:40:15;10.27;;;5.47;;
14125;SDS011;7141;49.484;11.242;2023-02-05T02:42:46;8.30;;;5.20;;
14125;SDS011;7141;49.484;11.242;2023-02-05T02:45:13;9.10;;;5.30;;
14125;SDS011;7141;49.484;11.242;2023-02-05T02:47:44;7.37;;;4.57;;
14125;SDS011;7141;49.484;11.242;2023-02-05T02:50:16;9.17;;;5.60;;
14125;SDS011;7141;49.484;11.242;2023-02-05T02:52:45;10.53;;;5.00;;
14125;SDS011;7141;49.484;11.242;2023-02-05T02:55:12;10.40;;;5.80;;
14125;SDS011;7141;49.484;11.242;2023-02-05T02:57:39;7.80;;;4.77;;
14125;SDS011;7141;49.484;11.242;2023-02-05T03:00:09;8.17;;;4.63;;
14125;SDS011;7141;49.484;11.242;2023-02-05T03:02:36;9.17;;;5.63;;
14125;SDS011;7141;49.484;11.242;2023-02-05T03:05:04;9.90;;;5.50;;
14125;SDS011;7141;49.484;11.242;2023-02-05T03:07:33;9.27;;;5.37;;
14125;SDS011;7141;49.484;11.242;2023-02-05T03:12:27;9.93;;;5.80;;
14125;SDS011;7141;49.484;11.242;2023-02-05T03:14:53;11.03;;;5.30;;
14125;SDS011;7141;49.484;11.242;2023-02-05T03:17:20;8.53;;;4.90;;
14125;SDS011;7141;49.484;11.242;2023-02-05T03:19:47;8.47;;;4.97;;
14125;SDS011;7141;49.484;11.242;2023-02-05T03:22:15;10.47;;;5.43;;
14125;SDS011;7141;49.484;11.242;2023-02-05T03:24:41;7.60;;;5.23;;
14125;SDS011;7141;49.484;11.242;2023-02-05T03:27:07;7.90;;;5.43;;
14125;SDS011;7141;49.484;11.242;2023-02-05T03:29:34;9.47;;;5.27;;
14125;SDS011;7141;49.484;11.242;2023-02-05T03:34:42;8.07;;;4.60;;
14125;SDS011;7141;49.484;11.242;2023-02-05T03:37:32;10.87;;;5.20;;
14125;SDS011;7141;49.484;11.242;2023-02-05T03:50:12;7.33;;;4.50;;
14125;SDS011;7141;49.484;11.242;2023-02-05T03:52:44;6.50;;;4.27;;
14125;SDS011;7141;49.484;11.242;2023-02-05T03:55:17;7.60;;;4.50;;
14125;SDS011;7141;49.484;11.242;2023-02-05T04:00:12;8.00;;;4.67;;
14125;SDS011;7141;49.484;11.242;2023-02-05T04:02:38;6.37;;;4.07;;
14125;SDS011;7141;49.484;11.242;2023-02-05T04:05:04;8.17;;;4.27;;
14125;SDS011;7141;49.484;11.242;2023-02-05T04:07:31;6.53;;;4.30;;
14125;SDS011;7141;49.484;11.242;2023-02-05T04:09:56;7.43;;;5.10;;
14125;SDS011;7141;49.484;11.242;2023-02-05T04:12:22;7.73;;;4.43;;
14125;SDS011;7141;49.484;11.242;2023-02-05T04:14:48;7.70;;;4.13;;
14125;SDS011;7141;49.484;11.242;2023-02-05T04:17:14;6.30;;;4.20;;
14125;SDS011;7141;49.484;11.242;2023-02-05T04:19:40;9.23;;;4.50;;
14125;SDS011;7141;49.484;11.242;2023-02-05T04:22:06;6.40;;;4.10;;
14125;SDS011;7141;49.484;11.242;2023-02-05T04:24:32;7.50;;;4.03;;
14125;SDS011;7141;49.484;11.242;2023-02-05T04:26:58;7.43;;;4.87;;
14125;SDS011;7141;49.484;11.242;2023-02-05T04:29:24;5.83;;;4.17;;
14125;SDS011;7141;49.484;11.242;2023-02-05T04:31:50;8.03;;;5.53;;
14125;SDS011;7141;49.484;11.242;2023-02-05T04:34:16;6.67;;;4.03;;
14125;SDS011;7141;49.484;11.242;2023-02-05T04:36:42;7.10;;;4.30;;
14125;SDS011;7141;49.484;11.242;2023-02-05T04:39:08;8.17;;;3.97;;
14125;SDS011;7141;49.484;11.242;2023-02-05T04:41:34;6.13;;;3.73;;
14125;SDS011;7141;49.484;11.242;2023-02-05T04:44:00;5.57;;;3.73;;
14125;SDS011;7141;49.484;11.242;2023-02-05T04:46:26;6.97;;;4.03;;
14125;SDS011;7141;49.484;11.242;2023-02-05T04:48:52;6.43;;;3.57;;
14125;SDS011;7141;49.484;11.242;2023-02-05T04:51:18;5.40;;;3.77;;
14125;SDS011;7141;49.484;11.242;2023-02-05T04:53:44;5.43;;;3.70;;
14125;SDS011;7141;49.484;11.242;2023-02-05T04:56:11;5.57;;;3.70;;
14125;SDS011;7141;49.484;11.242;2023-02-05T04:58:37;5.93;;;4.00;;
14125;SDS011;7141;49.484;11.242;2023-02-05T05:01:03;4.57;;;3.43;;
14125;SDS011;7141;49.484;11.242;2023-02-05T05:03:30;6.03;;;3.93;;
14125;SDS011;7141;49.484;11.242;2023-02-05T05:05:56;7.00;;;3.80;;
14125;SDS011;7141;49.484;11.242;2023-02-05T05:08:27;6.37;;;3.33;;
14125;SDS011;7141;49.484;11.242;2023-02-05T05:10:53;8.00;;;4.27;;
14125;SDS011;7141;49.484;11.242;2023-02-05T05:13:19;10.17;;;5.93;;
14125;SDS011;7141;49.484;11.242;2023-02-05T05:15:51;9.87;;;5.23;;
14125;SDS011;7141;49.484;11.242;2023-02-05T05:18:17;7.50;;;4.30;;
14125;SDS011;7141;49.484;11.242;2023-02-05T05:20:43;9.23;;;4.63;;
14125;SDS011;7141;49.484;11.242;2023-02-05T05:23:09;6.90;;;4.30;;
14125;SDS011;7141;49.484;11.242;2023-02-05T05:25:40;7.83;;;3.93;;
14125;SDS011;7141;49.484;11.242;2023-02-05T05:28:05;7.80;;;4.20;;
14125;SDS011;7141;49.484;11.242;2023-02-05T05:30:31;9.27;;;4.20;;
14125;SDS011;7141;49.484;11.242;2023-02-05T05:32:57;10.20;;;4.63;;
14125;SDS011;7141;49.484;11.242;2023-02-05T05:35:23;8.33;;;4.23;;
14125;SDS011;7141;49.484;11.242;2023-02-05T05:37:49;7.93;;;4.53;;
14125;SDS011;7141;49.484;11.242;2023-02-05T05:40:15;8.33;;;4.83;;
14125;SDS011;7141;49.484;11.242;2023-02-05T05:43:00;8.60;;;4.30;;
14125;SDS011;7141;49.484;11.242;2023-02-05T05:45:45;10.73;;;4.10;;
14125;SDS011;7141;49.484;11.242;2023-02-05T05:48:11;6.27;;;3.90;;
14125;SDS011;7141;49.484;11.242;2023-02-05T05:50:37;7.33;;;3.93;;
14125;SDS011;7141;49.484;11.242;2023-02-05T05:53:03;6.90;;;4.10;;
14125;SDS011;7141;49.484;11.242;2023-02-05T05:55:29;10.27;;;4.47;;
14125;SDS011;7141;49.484;11.242;2023-02-05T05:57:55;7.23;;;4.50;;
14125;SDS011;7141;49.484;11.242;2023-02-05T06:00:21;8.47;;;4.07;;
14125;SDS011;7141;49.484;11.242;2023-02-05T06:02:47;5.67;;;3.70;;
14125;SDS011;7141;49.484;11.242;2023-02-05T06:05:12;5.47;;;3.13;;
14125;SDS011;7141;49.484;11.242;2023-02-05T06:07:38;4.90;;;3.47;;
14125;SDS011;7141;49.484;11.242;2023-02-05T06:10:04;5.33;;;3.50;;
14125;SDS011;7141;49.484;11.242;2023-02-05T06:12:31;4.93;;;4.03;;
14125;SDS011;7141;49.484;11.242;2023-02-05T06:14:56;7.37;;;4.70;;
14125;SDS011;7141;49.484;11.242;2023-02-05T06:17:22;8.83;;;4.67;;
14125;SDS011;7141;49.484;11.242;2023-02-05T06:19:48;10.67;;;5.10;;
14125;SDS011;7141;49.484;11.242;2023-02-05T06:22:14;5.60;;;4.07;;
14125;SDS011;7141;49.484;11.242;2023-02-05T06:24:40;7.70;;;4.47;;
14125;SDS011;7141;49.484;11.242;2023-02-05T06:27:06;9.00;;;4.90;;
14125;SDS011;7141;49.484;11.242;2023-02-05T06:29:32;6.47;;;4.50;;
14125;SDS011;7141;49.484;11.242;2023-02-05T06:31:58;6.53;;;4.43;;
14125;SDS011;7141;49.484;11.242;2023-02-05T06:34:24;6.03;;;4.20;;
14125;SDS011;7141;49.484;11.242;2023-02-05T06:36:50;8.67;;;5.00;;
14125;SDS011;7141;49.484;11.242;2023-02-05T06:39:16;8.83;;;4.20;;
14125;SDS011;7141;49.484;11.242;2023-02-05T06:41:42;5.50;;;3.13;;
14125;SDS011;7141;49.484;11.242;2023-02-05T06:44:08;7.70;;;4.00;;
14125;SDS011;7141;49.484;11.242;2023-02-05T06:46:34;7.40;;;3.70;;
14125;SDS011;7141;49.484;11.242;2023-02-05T06:49:00;5.93;;;4.10;;
14125;SDS011;7141;49.484;11.242;2023-02-05T06:51:26;6.37;;;3.43;;
14125;SDS011;7141;49.484;11.242;2023-02-05T06:53:52;4.33;;;3.07;;
14125;SDS011;7141;49.484;11.242;2023-02-05T06:56:19;7.27;;;4.47;;
14125;SDS011;7141;49.484;11.242;2023-02-05T06:58:45;16.63;;;7.83;;
14125;SDS011;7141;49.484;11.242;2023-02-05T07:01:11;15.43;;;6.77;;
14125;SDS011;7141;49.484;11.242;2023-02-05T07:03:37;8.70;;;4.87;;
14125;SDS011;7141;49.484;11.242;2023-02-05T07:06:03;6.97;;;4.30;;
14125;SDS011;7141;49.484;11.242;2023-02-05T07:08:30;8.17;;;4.47;;
14125;SDS011;7141;49.484;11.242;2023-02-05T07:10:56;14.27;;;7.63;;
14125;SDS011;7141;49.484;11.242;2023-02-05T07:13:22;18.57;;;8.77;;
14125;SDS011;7141;49.484;11.242;2023-02-05T07:15:48;10.20;;;5.33;;
14125;SDS011;7141;49.484;11.242;2023-02-05T07:18:14;13.77;;;6.97;;
14125;SDS011;7141;49.484;11.242;2023-02-05T07:20:40;11.40;;;6.30;;
14125;SDS011;7141;49.484;11.242;2023-02-05T07:23:06;11.07;;;6.10;;
14125;SDS011;7141;49.484;11.242;2023-02-05T07:25:32;11.80;;;5.83;;
14125;SDS011;7141;49.484;11.242;2023-02-05T07:28:02;9.77;;;6.27;;
14125;SDS011;7141;49.484;11.242;2023-02-05T07:30:28;9.73;;;5.63;;
14125;SDS011;7141;49.484;11.242;2023-02-05T07:32:54;7.77;;;5.37;;
14125;SDS011;7141;49.484;11.242;2023-02-05T07:35:20;9.37;;;5.80;;
14125;SDS011;7141;49.484;11.242;2023-02-05T07:37:46;9.23;;;4.63;;
14125;SDS011;7141;49.484;11.242;2023-02-05T07:40:12;9.33;;;5.50;;
14125;SDS011;7141;49.484;11.242;2023-02-05T07:42:38;8.23;;;5.67;;
14125;SDS011;7141;49.484;11.242;2023-02-05T07:45:04;11.90;;;6.47;;
14125;SDS011;7141;49.484;11.242;2023-02-05T07:47:31;7.60;;;4.77;;
14125;SDS011;7141;49.484;11.242;2023-02-05T07:49:57;6.10;;;4.70;;
14125;SDS011;7141;49.484;11.242;2023-02-05T07:52:23;9.13;;;5.23;;
14125;SDS011;7141;49.484;11.242;2023-02-05T07:54:49;6.13;;;4.60;;
14125;SDS011;7141;49.484;11.242;2023-02-05T07:57:15;8.13;;;4.33;;
14125;SDS011;7141;49.484;11.242;2023-02-05T07:59:41;5.87;;;4.43;;
14125;SDS011;7141;49.484;11.242;2023-02-05T08:02:08;6.17;;;4.33;;
14125;SDS011;7141;49.484;11.242;2023-02-05T08:04:34;6.17;;;3.93;;
14125;SDS011;7141;49.484;11.242;2023-02-05T08:07:00;6.83;;;4.10;;
14125;SDS011;7141;49.484;11.242;2023-02-05T08:09:26;7.10;;;3.90;;
14125;SDS011;7141;49.484;11.242;2023-02-05T08:11:52;6.33;;;4.43;;
14125;SDS011;7141;49.484;11.242;2023-02-05T08:14:18;7.50;;;4.10;;
14125;SDS011;7141;49.484;11.242;2023-02-05T08:16:44;6.50;;;3.40;;
14125;SDS011;7141;49.484;11.242;2023-02-05T08:19:13;5.50;;;3.53;;
14125;SDS011;7141;49.484;11.242;2023-02-05T08:21:40;4.57;;;3.60;;
14125;SDS011;7141;49.484;11.242;2023-02-05T08:24:07;7.73;;;4.03;;
14125;SDS011;7141;49.484;11.242;2023-02-05T08:26:33;5.60;;;3.40;;
14125;SDS011;7141;49.484;11.242;2023-02-05T08:28:59;4.70;;;3.40;;
14125;SDS011;7141;49.484;11.242;2023-02-05T08:31:25;6.20;;;4.20;;
14125;SDS011;7141;49.484;11.242;2023-02-05T08:33:50;5.87;;;3.80;;
14125;SDS011;7141;49.484;11.242;2023-02-05T08:36:19;4.73;;;3.73;;
14125;SDS011;7141;49.484;11.242;2023-02-05T08:38:45;7.07;;;3.93;;
14125;SDS011;7141;49.484;11.242;2023-02-05T08:41:11;5.90;;;4.07;;
14125;SDS011;7141;49.484;11.242;2023-02-05T08:43:41;7.63;;;4.23;;
14125;SDS011;7141;49.484;11.242;2023-02-05T08:46:07;8.70;;;4.77;;
14125;SDS011;7141;49.484;11.242;2023-02-05T08:48:34;9.07;;;5.40;;
14125;SDS011;7141;49.484;11.242;2023-02-05T08:51:00;10.03;;;5.07;;
14125;SDS011;7141;49.484;11.242;2023-02-05T08:53:26;7.37;;;4.93;;
14125;SDS011;7141;49.484;11.242;2023-02-05T08:55:56;8.87;;;5.17;;
14125;SDS011;7141;49.484;11.242;2023-02-05T08:58:22;8.63;;;4.60;;
14125;SDS011;7141;49.484;11.242;2023-02-05T09:00:48;5.77;;;4.27;;
14125;SDS011;7141;49.484;11.242;2023-02-05T09:03:14;8.77;;;5.03;;
14125;SDS011;7141;49.484;11.242;2023-02-05T09:05:40;9.70;;;5.43;;
14125;SDS011;7141;49.484;11.242;2023-02-05T09:08:06;9.50;;;5.00;;
14125;SDS011;7141;49.484;11.242;2023-02-05T09:10:32;9.90;;;4.73;;
14125;SDS011;7141;49.484;11.242;2023-02-05T09:12:59;7.00;;;4.87;;
14125;SDS011;7141;49.484;11.242;2023-02-05T09:15:25;7.30;;;5.30;;
14125;SDS011;7141;49.484;11.242;2023-02-05T09:17:51;9.57;;;5.50;;
14125;SDS011;7141;49.484;11.242;2023-02-05T09:20:17;8.50;;;5.13;;
14125;SDS011;7141;49.484;11.242;2023-02-05T09:22:43;8.47;;;5.13;;
14125;SDS011;7141;49.484;11.242;2023-02-05T09:25:09;10.73;;;5.30;;
14125;SDS011;7141;49.484;11.242;2023-02-05T09:27:35;11.90;;;7.10;;
14125;SDS011;7141;49.484;11.242;2023-02-05T09:30:02;10.27;;;5.40;;
14125;SDS011;7141;49.484;11.242;2023-02-05T09:32:28;8.07;;;4.67;;
14125;SDS011;7141;49.484;11.242;2023-02-05T09:34:54;8.93;;;4.43;;
14125;SDS011;7141;49.484;11.242;2023-02-05T09:37:20;6.70;;;4.53;;
14125;SDS011;7141;49.484;11.242;2023-02-05T09:39:46;7.17;;;4.27;;
14125;SDS011;7141;49.484;11.242;2023-02-05T09:42:16;8.30;;;4.60;;
14125;SDS011;7141;49.484;11.242;2023-02-05T09:44:48;6.10;;;4.30;;
14125;SDS011;7141;49.484;11.242;2023-02-05T09:49:48;3.27;;;2.23;;
14125;SDS011;7141;49.484;11.242;2023-02-05T09:54:42;6.77;;;3.70;;
14125;SDS011;7141;49.484;11.242;2023-02-05T09:57:13;8.50;;;4.33;;
14125;SDS011;7141;49.484;11.242;2023-02-05T09:59:40;10.73;;;6.17;;
14125;SDS011;7141;49.484;11.242;2023-02-05T10:02:28;9.87;;;5.47;;
14125;SDS011;7141;49.484;11.242;2023-02-05T10:04:56;5.90;;;4.10;;
14125;SDS011;7141;49.484;11.242;2023-02-05T10:12:48;5.27;;;3.90;;
14125;SDS011;7141;49.484;11.242;2023-02-05T10:23:07;8.17;;;3.87;;
14125;SDS011;7141;49.484;11.242;2023-02-05T10:28:20;5.93;;;4.00;;
14125;SDS011;7141;49.484;11.242;2023-02-05T10:31:02;7.50;;;4.20;;
14125;SDS011;7141;49.484;11.242;2023-02-05T10:36:03;6.50;;;3.97;;
14125;SDS011;7141;49.484;11.242;2023-02-05T10:38:32;6.90;;;4.10;;
14125;SDS011;7141;49.484;11.242;2023-02-05T10:43:48;9.87;;;5.40;;
14125;SDS011;7141;49.484;11.242;2023-02-05T10:46:15;8.37;;;5.20;;
14125;SDS011;7141;49.484;11.242;2023-02-05T10:48:46;7.97;;;4.73;;
14125;SDS011;7141;49.484;11.242;2023-02-05T10:51:26;6.67;;;4.40;;
14125;SDS011;7141;49.484;11.242;2023-02-05T10:53:55;7.70;;;4.83;;
14125;SDS011;7141;49.484;11.242;2023-02-05T10:56:22;6.63;;;4.23;;
14125;SDS011;7141;49.484;11.242;2023-02-05T11:03:53;4.50;;;2.47;;
14125;SDS011;7141;49.484;11.242;2023-02-05T11:06:26;3.20;;;2.43;;
14125;SDS011;7141;49.484;11.242;2023-02-05T11:08:53;3.80;;;2.40;;
14125;SDS011;7141;49.484;11.242;2023-02-05T11:13:48;3.67;;;2.53;;
14125;SDS011;7141;49.484;11.242;2023-02-05T11:16:15;3.60;;;2.40;;
14125;SDS011;7141;49.484;11.242;2023-02-05T11:18:42;3.83;;;2.60;;
14125;SDS011;7141;49.484;11.242;2023-02-05T11:21:08;4.27;;;3.13;;
14125;SDS011;7141;49.484;11.242;2023-02-05T11:23:35;3.83;;;2.57;;
14125;SDS011;7141;49.484;11.242;2023-02-05T11:28:34;4.00;;;2.80;;
14125;SDS011;7141;49.484;11.242;2023-02-05T11:36:34;3.80;;;2.70;;
14125;SDS011;7141;49.484;11.242;2023-02-05T11:39:01;3.20;;;2.40;;
14125;SDS011;7141;49.484;11.242;2023-02-05T11:41:38;5.47;;;2.73;;
14125;SDS011;7141;49.484;11.242;2023-02-05T11:44:33;3.97;;;2.93;;
14125;SDS011;7141;49.484;11.242;2023-02-05T11:47:01;5.90;;;2.67;;
14125;SDS011;7141;49.484;11.242;2023-02-05T11:49:32;4.77;;;2.87;;
14125;SDS011;7141;49.484;11.242;2023-02-05T11:51:59;4.03;;;2.77;;
14125;SDS011;7141;49.484;11.242;2023-02-05T11:54:27;4.17;;;2.93;;
14125;SDS011;7141;49.484;11.242;2023-02-05T11:59:40;4.73;;;2.37;;
14125;SDS011;7141;49.484;11.242;2023-02-05T12:04:45;3.70;;;2.87;;
14125;SDS011;7141;49.484;11.242;2023-02-05T12:07:12;3.27;;;2.47;;
14125;SDS011;7141;49.484;11.242;2023-02-05T12:09:40;3.70;;;2.23;;
14125;SDS011;7141;49.484;11.242;2023-02-05T12:12:21;3.63;;;2.60;;
14125;SDS011;7141;49.484;11.242;2023-02-05T12:20:15;3.70;;;2.57;;
14125;SDS011;7141;49.484;11.242;2023-02-05T12:38:19;3.47;;;2.67;;
14125;SDS011;7141;49.484;11.242;2023-02-05T12:43:28;4.33;;;2.67;;
14125;SDS011;7141;49.484;11.242;2023-02-05T12:51:06;4.70;;;2.90;;
14125;SDS011;7141;49.484;11.242;2023-02-05T12:58:53;5.10;;;3.07;;
14125;SDS011;7141;49.484;11.242;2023-02-05T13:01:29;10.33;;;3.83;;
14125;SDS011;7141;49.484;11.242;2023-02-05T13:03:58;6.20;;;3.37;;
14125;SDS011;7141;49.484;11.242;2023-02-05T13:08:55;5.57;;;3.20;;
14125;SDS011;7141;49.484;11.242;2023-02-05T13:11:30;4.67;;;2.93;;
14125;SDS011;7141;49.484;11.242;2023-02-05T13:14:10;5.40;;;3.73;;
14125;SDS011;7141;49.484;11.242;2023-02-05T13:16:41;5.23;;;3.10;;
14125;SDS011;7141;49.484;11.242;2023-02-05T13:21:40;6.83;;;3.03;;
14125;SDS011;7141;49.484;11.242;2023-02-05T13:24:33;4.60;;;2.60;;
14125;SDS011;7141;49.484;11.242;2023-02-05T13:27:39;4.03;;;3.10;;
14125;SDS011;7141;49.484;11.242;2023-02-05T13:30:25;4.17;;;2.93;;
14125;SDS011;7141;49.484;11.242;2023-02-05T13:32:55;4.67;;;3.27;;
14125;SDS011;7141;49.484;11.242;2023-02-05T13:35:22;7.37;;;3.87;;
14125;SDS011;7141;49.484;11.242;2023-02-05T13:40:37;6.00;;;3.00;;
14125;SDS011;7141;49.484;11.242;2023-02-05T13:49:05;6.33;;;3.30;;
14125;SDS011;7141;49.484;11.242;2023-02-05T13:59:04;5.57;;;3.30;;
14125;SDS011;7141;49.484;11.242;2023-02-05T14:01:39;6.83;;;3.27;;
14125;SDS011;7141;49.484;11.242;2023-02-05T14:04:07;4.90;;;3.00;;
14125;SDS011;7141;49.484;11.242;2023-02-05T14:06:41;6.00;;;3.37;;
14125;SDS011;7141;49.484;11.242;2023-02-05T14:11:53;6.10;;;3.87;;
14125;SDS011;7141;49.484;11.242;2023-02-05T14:14:28;6.43;;;4.40;;
14125;SDS011;7141;49.484;11.242;2023-02-05T14:16:55;5.53;;;3.33;;
14125;SDS011;7141;49.484;11.242;2023-02-05T14:19:25;8.60;;;4.60;;
14125;SDS011;7141;49.484;11.242;2023-02-05T14:21:57;4.50;;;3.30;;
14125;SDS011;7141;49.484;11.242;2023-02-05T14:26:53;11.47;;;5.50;;
14125;SDS011;7141;49.484;11.242;2023-02-05T14:32:09;3.80;;;3.17;;
14125;SDS011;7141;49.484;11.242;2023-02-05T14:37:01;5.13;;;3.10;;
14125;SDS011;7141;49.484;11.242;2023-02-05T14:39:28;4.23;;;3.20;;
14125;SDS011;7141;49.484;11.242;2023-02-05T14:41:57;4.60;;;3.00;;
14125;SDS011;7141;49.484;11.242;2023-02-05T14:44:31;4.07;;;2.97;;
14125;SDS011;7141;49.484;11.242;2023-02-05T14:47:05;6.53;;;3.60;;
14125;SDS011;7141;49.484;11.242;2023-02-05T14:51:59;6.83;;;3.30;;
14125;SDS011;7141;49.484;11.242;2023-02-05T14:54:28;5.40;;;3.80;;
14125;SDS011;7141;49.484;11.242;2023-02-05T15:04:54;6.83;;;4.50;;
14125;SDS011;7141;49.484;11.242;2023-02-05T15:07:21;8.73;;;5.50;;
14125;SDS011;7141;49.484;11.242;2023-02-05T15:14:50;11.17;;;6.80;;
14125;SDS011;7141;49.484;11.242;2023-02-05T15:19:53;11.83;;;6.20;;
14125;SDS011;7141;49.484;11.242;2023-02-05T15:25:08;12.47;;;7.83;;
14125;SDS011;7141;49.484;11.242;2023-02-05T15:27:41;10.53;;;6.73;;
14125;SDS011;7141;49.484;11.242;2023-02-05T15:30:08;10.20;;;6.27;;
14125;SDS011;7141;49.484;11.242;2023-02-05T15:32:44;8.13;;;5.53;;
14125;SDS011;7141;49.484;11.242;2023-02-05T15:35:13;9.27;;;4.63;;
14125;SDS011;7141;49.484;11.242;2023-02-05T15:37:42;6.40;;;4.20;;
14125;SDS011;7141;49.484;11.242;2023-02-05T15:40:10;11.53;;;6.03;;
14125;SDS011;7141;49.484;11.242;2023-02-05T15:42:38;10.23;;;6.30;;
14125;SDS011;7141;49.484;11.242;2023-02-05T15:50:34;8.17;;;4.50;;
14125;SDS011;7141;49.484;11.242;2023-02-05T15:53:00;14.00;;;6.73;;
14125;SDS011;7141;49.484;11.242;2023-02-05T15:55:27;10.80;;;5.77;;
14125;SDS011;7141;49.484;11.242;2023-02-05T15:57:55;11.73;;;6.37;;
14125;SDS011;7141;49.484;11.242;2023-02-05T16:00:23;7.40;;;4.80;;
14125;SDS011;7141;49.484;11.242;2023-02-05T16:02:58;11.07;;;5.80;;
14125;SDS011;7141;49.484;11.242;2023-02-05T16:05:25;9.90;;;4.87;;
14125;SDS011;7141;49.484;11.242;2023-02-05T16:07:51;8.43;;;5.33;;
14125;SDS011;7141;49.484;11.242;2023-02-05T16:15:30;7.83;;;4.57;;
14125;SDS011;7141;49.484;11.242;2023-02-05T16:17:58;6.13;;;4.47;;
14125;SDS011;7141;49.484;11.242;2023-02-05T16:20:29;7.63;;;4.60;;
14125;SDS011;7141;49.484;11.242;2023-02-05T16:22:59;7.87;;;4.07;;
14125;SDS011;7141;49.484;11.242;2023-02-05T16:25:34;8.17;;;4.57;;
14125;SDS011;7141;49.484;11.242;2023-02-05T16:28:02;6.57;;;3.63;;
14125;SDS011;7141;49.484;11.242;2023-02-05T16:32:56;5.37;;;4.00;;
14125;SDS011;7141;49.484;11.242;2023-02-05T16:35:28;18.93;;;7.10;;
14125;SDS011;7141;49.484;11.242;2023-02-05T16:37:54;25.77;;;8.73;;
14125;SDS011;7141;49.484;11.242;2023-02-05T16:40:35;16.10;;;6.33;;
14125;SDS011;7141;49.484;11.242;2023-02-05T16:46:44;9.60;;;4.70;;
14125;SDS011;7141;49.484;11.242;2023-02-05T16:53:56;9.37;;;5.53;;
14125;SDS011;7141;49.484;11.242;2023-02-05T16:56:24;10.73;;;5.50;;
14125;SDS011;7141;49.484;11.242;2023-02-05T16:58:51;6.07;;;5.10;;
14125;SDS011;7141;49.484;11.242;2023-02-05T17:01:27;5.90;;;4.07;;
14125;SDS011;7141;49.484;11.242;2023-02-05T17:03:54;6.20;;;3.77;;
14125;SDS011;7141;49.484;11.242;2023-02-05T17:06:21;6.97;;;3.97;;
14125;SDS011;7141;49.484;11.242;2023-02-05T17:08:51;7.30;;;4.30;;
14125;SDS011;7141;49.484;11.242;2023-02-05T17:11:41;5.77;;;3.70;;
14125;SDS011;7141;49.484;11.242;2023-02-05T17:14:09;6.20;;;4.37;;
14125;SDS011;7141;49.484;11.242;2023-02-05T17:16:39;6.97;;;4.50;;
14125;SDS011;7141;49.484;11.242;2023-02-05T17:19:20;11.30;;;6.30;;
14125;SDS011;7141;49.484;11.242;2023-02-05T17:21:46;15.57;;;6.30;;
14125;SDS011;7141;49.484;11.242;2023-02-05T17:24:12;12.00;;;6.63;;
14125;SDS011;7141;49.484;11.242;2023-02-05T17:26:40;10.90;;;6.63;;
14125;SDS011;7141;49.484;11.242;2023-02-05T17:29:07;14.43;;;7.17;;
14125;SDS011;7141;49.484;11.242;2023-02-05T17:31:34;11.77;;;7.60;;
14125;SDS011;7141;49.484;11.242;2023-02-05T17:34:01;13.00;;;7.83;;
14125;SDS011;7141;49.484;11.242;2023-02-05T17:36:27;13.47;;;7.60;;
14125;SDS011;7141;49.484;11.242;2023-02-05T17:38:53;17.73;;;10.40;;
14125;SDS011;7141;49.484;11.242;2023-02-05T17:41:23;17.20;;;10.30;;
14125;SDS011;7141;49.484;11.242;2023-02-05T17:44:09;16.30;;;8.87;;
14125;SDS011;7141;49.484;11.242;2023-02-05T17:46:36;15.33;;;7.90;;
14125;SDS011;7141;49.484;11.242;2023-02-05T17:49:02;12.93;;;7.57;;
14125;SDS011;7141;49.484;11.242;2023-02-05T17:51:28;14.43;;;7.60;;